Terminal Aerodrome Forecast
Issued by NWS

Home | Current Version | Previous Version | Text Only | Print | Product List | Glossary On
Versions: 1 2 3 4 5 6 7 8 9 10 11 12 13 14 15 16 17 18 19 20 21 22 23 24 25 26 27 28 29 30 31 32 33 34 35 36 37 38 39 40 41 42 43 44 45
000
FTUS45 KSLC 060531
TAFEVW
TAF
KEVW 060531Z 0606/0706 18006KT P6SM SCT060
     FM061400 11007KT P6SM SCT040 BKN080
     FM061800 23007KT P6SM VCSH SCT020 BKN040
     FM062100 36007KT 2SM -SN BR SCT007 BKN015
     FM070100 29006KT P6SM VCSH SCT020 BKN040=

USA.gov is the U.S. government's official web portal to all federal, state and local government web resources and services.